Time,TemperatureF,DewpointF,PressureIn,WindDirection,WindDirectionDegrees,WindSpeedMPH,WindSpeedGustMPH,Humidity,HourlyPrecipIn,Conditions,Clouds,dailyrainin,SolarRadiationWatts/m^2,SoftwareType,DateUTC
2013-03-03 00:02:00,28.0,20.0,-100.00,NNW,336,7.0,17.0,72,0.00,,,0.03,0.000000,,2013-03-03 05:02:00,
2013-03-03 00:32:00,28.0,20.0,-100.00,North,349,7.0,14.0,72,0.00,,,0.03,0.000000,,2013-03-03 05:32:00,
2013-03-03 00:42:00,28.0,20.0,-100.00,North,349,7.0,14.0,72,0.00,,,0.03,0.000000,,2013-03-03 05:42:00,
2013-03-03 00:52:00,28.0,20.0,-100.00,North,349,7.0,14.0,72,0.00,,,0.03,0.000000,,2013-03-03 05:52:00,
2013-03-03 01:02:00,28.0,20.0,-100.00,North,349,7.0,14.0,72,0.00,,,0.03,0.000000,,2013-03-03 06:02:00,
2013-03-03 01:32:00,27.0,19.0,-100.00,NNW,346,7.0,15.0,70,0.00,,,0.03,0.000000,,2013-03-03 06:32:00,
2013-03-03 01:42:00,27.0,19.0,-100.00,NNW,346,7.0,15.0,70,0.00,,,0.03,0.000000,,2013-03-03 06:42:00,
2013-03-03 01:52:00,27.0,19.0,-100.00,NNW,346,7.0,15.0,70,0.00,,,0.03,0.000000,,2013-03-03 06:52:00,
2013-03-03 02:01:00,27.0,19.0,-100.00,NNW,346,7.0,15.0,70,0.00,,,0.03,0.000000,,2013-03-03 07:01:00,
2013-03-03 02:32:00,27.0,20.0,-100.00,NW,318,6.0,13.0,73,0.00,,,0.03,0.000000,,2013-03-03 07:32:00,
2013-03-03 02:42:00,27.0,20.0,-100.00,NW,318,6.0,13.0,73,0.00,,,0.03,0.000000,,2013-03-03 07:42:00,
2013-03-03 02:52:00,27.0,20.0,-100.00,NW,318,6.0,13.0,73,0.00,,,0.03,0.000000,,2013-03-03 07:52:00,
2013-03-03 03:01:00,27.0,20.0,-100.00,NW,318,6.0,13.0,73,0.00,,,0.03,0.000000,,2013-03-03 08:01:00,
2013-03-03 03:32:00,26.0,18.0,-100.00,NNW,329,10.0,16.0,72,0.00,,,0.03,0.000000,,2013-03-03 08:32:00,
2013-03-03 03:42:00,26.0,18.0,-100.00,NNW,329,10.0,16.0,72,0.00,,,0.03,0.000000,,2013-03-03 08:42:00,
2013-03-03 03:54:00,26.0,18.0,-100.00,NNW,329,10.0,16.0,72,0.00,,,0.03,0.000000,,2013-03-03 08:54:00,
2013-03-03 04:02:00,26.0,18.0,-100.00,NNW,329,10.0,16.0,72,0.00,,,0.03,0.000000,,2013-03-03 09:02:00,
2013-03-03 04:32:00,26.0,18.0,-100.00,NNW,334,7.0,14.0,71,0.00,,,0.03,0.000000,,2013-03-03 09:32:00,
2013-03-03 04:42:00,26.0,18.0,-100.00,NNW,334,7.0,14.0,71,0.00,,,0.03,0.000000,,2013-03-03 09:42:00,
2013-03-03 04:52:00,26.0,18.0,-100.00,NNW,334,7.0,14.0,71,0.00,,,0.03,0.000000,,2013-03-03 09:52:00,
2013-03-03 05:01:00,26.0,18.0,-100.00,NNW,334,7.0,14.0,71,0.00,,,0.03,0.000000,,2013-03-03 10:01:00,
2013-03-03 05:32:00,26.0,18.0,-100.00,NNW,340,10.0,17.0,70,0.00,,,0.03,0.000000,,2013-03-03 10:32:00,
2013-03-03 05:42:00,26.0,18.0,-100.00,NNW,340,10.0,17.0,70,0.00,,,0.03,0.000000,,2013-03-03 10:42:00,
2013-03-03 05:52:00,26.0,18.0,-100.00,NNW,340,10.0,17.0,70,0.00,,,0.03,0.000000,,2013-03-03 10:52:00,
2013-03-03 06:01:00,26.0,18.0,-100.00,NNW,340,10.0,17.0,70,0.00,,,0.03,0.000000,,2013-03-03 11:01:00,
2013-03-03 06:32:00,25.0,16.0,-100.00,NW,318,10.0,19.0,68,0.00,,,0.03,0.000000,,2013-03-03 11:32:00,
2013-03-03 06:42:00,25.0,16.0,-100.00,NW,318,10.0,19.0,68,0.00,,,0.03,0.000000,,2013-03-03 11:42:00,
2013-03-03 06:53:00,25.0,16.0,-100.00,NW,318,10.0,19.0,68,0.00,,,0.03,0.000000,,2013-03-03 11:53:00,
2013-03-03 07:02:00,25.0,16.0,-100.00,NW,318,10.0,19.0,68,0.00,,,0.03,0.000000,,2013-03-03 12:02:00,
2013-03-03 07:32:00,24.0,18.0,-100.00,NW,320,9.0,16.0,76,0.00,,,0.03,0.000000,,2013-03-03 12:32:00,
2013-03-03 07:43:00,24.0,18.0,-100.00,NW,320,9.0,16.0,76,0.00,,,0.03,0.000000,,2013-03-03 12:43:00,
2013-03-03 07:53:00,24.0,18.0,-100.00,NW,320,9.0,16.0,76,0.00,,,0.03,0.000000,,2013-03-03 12:53:00,
2013-03-03 08:02:00,24.0,18.0,-100.00,NW,320,9.0,16.0,76,0.00,,,0.03,0.000000,,2013-03-03 13:02:00,
2013-03-03 08:32:00,25.0,14.0,-100.00,NNW,338,8.0,19.0,63,0.00,,,0.03,60.000000,,2013-03-03 13:32:00,
2013-03-03 08:42:00,25.0,14.0,-100.00,NNW,338,8.0,19.0,63,0.00,,,0.03,60.000000,,2013-03-03 13:42:00,
2013-03-03 08:52:00,25.0,14.0,-100.00,NNW,338,8.0,19.0,63,0.00,,,0.03,60.000000,,2013-03-03 13:52:00,
2013-03-03 09:02:00,25.0,14.0,-100.00,NNW,338,8.0,19.0,63,0.00,,,0.03,60.000000,,2013-03-03 14:02:00,
2013-03-03 09:32:00,26.0,13.0,-100.00,NNW,334,12.0,20.0,58,0.00,,,0.03,281.000000,,2013-03-03 14:32:00,
2013-03-03 09:42:00,26.0,13.0,-100.00,NNW,334,12.0,20.0,58,0.00,,,0.03,281.000000,,2013-03-03 14:42:00,
2013-03-03 09:52:00,26.0,13.0,-100.00,NNW,334,12.0,20.0,58,0.00,,,0.03,281.000000,,2013-03-03 14:52:00,
2013-03-03 10:02:00,26.0,13.0,-100.00,NNW,334,12.0,20.0,58,0.00,,,0.03,281.000000,,2013-03-03 15:02:00,
2013-03-03 10:32:00,28.0,13.0,-100.00,NW,311,12.0,22.0,53,0.00,,,-99.99,617.000000,,2013-03-03 15:32:00,
2013-03-03 10:42:00,28.0,13.0,-100.00,NW,311,12.0,22.0,53,0.00,,,-99.99,617.000000,,2013-03-03 15:42:00,
2013-03-03 10:52:00,28.0,13.0,-100.00,NW,311,12.0,22.0,53,0.00,,,-99.99,617.000000,,2013-03-03 15:52:00,
2013-03-03 11:02:00,28.0,13.0,-100.00,NW,311,12.0,22.0,53,0.00,,,-99.99,617.000000,,2013-03-03 16:02:00,
2013-03-03 11:32:00,29.0,14.0,-100.00,NNW,343,12.0,21.0,54,0.00,,,0.03,642.000000,,2013-03-03 16:32:00,
2013-03-03 11:42:00,29.0,14.0,-100.00,NNW,343,12.0,21.0,54,0.00,,,0.03,642.000000,,2013-03-03 16:42:00,
2013-03-03 11:52:00,29.0,14.0,-100.00,NNW,343,12.0,21.0,54,0.00,,,0.03,642.000000,,2013-03-03 16:52:00,
2013-03-03 12:01:00,29.0,14.0,-100.00,NNW,343,12.0,21.0,54,0.00,,,0.03,642.000000,,2013-03-03 17:01:00,
2013-03-03 12:32:00,29.0,14.0,-100.00,NW,311,14.0,23.0,53,0.00,,,0.02,768.000000,,2013-03-03 17:32:00,
2013-03-03 12:42:00,29.0,14.0,-100.00,NW,311,14.0,23.0,53,0.00,,,0.02,768.000000,,2013-03-03 17:42:00,
2013-03-03 12:52:00,29.0,14.0,-100.00,NW,311,14.0,23.0,53,0.00,,,0.02,768.000000,,2013-03-03 17:52:00,
2013-03-03 13:02:00,29.0,14.0,-100.00,NW,311,14.0,23.0,53,0.00,,,0.02,768.000000,,2013-03-03 18:02:00,
2013-03-03 13:32:00,29.0,15.0,-100.00,NNW,328,10.0,20.0,56,0.00,,,0.01,577.000000,,2013-03-03 18:32:00,
2013-03-03 13:42:00,29.0,15.0,-100.00,NNW,328,10.0,20.0,56,0.00,,,0.01,577.000000,,2013-03-03 18:42:00,
2013-03-03 13:53:00,29.0,15.0,-100.00,NNW,328,10.0,20.0,56,0.00,,,0.01,577.000000,,2013-03-03 18:53:00,
2013-03-03 14:02:00,29.0,15.0,-100.00,NNW,328,10.0,20.0,56,0.00,,,0.01,577.000000,,2013-03-03 19:02:00,
2013-03-03 14:32:00,31.0,18.0,-100.00,NW,322,11.0,20.0,57,0.00,,,0.01,671.000000,,2013-03-03 19:32:00,
2013-03-03 14:42:00,31.0,18.0,-100.00,NW,322,11.0,20.0,57,0.00,,,0.01,671.000000,,2013-03-03 19:42:00,
2013-03-03 14:52:00,31.0,18.0,-100.00,NW,322,11.0,20.0,57,0.00,,,0.01,671.000000,,2013-03-03 19:52:00,
2013-03-03 15:01:00,31.0,18.0,-100.00,NW,322,11.0,20.0,57,0.00,,,0.01,671.000000,,2013-03-03 20:01:00,
2013-03-03 15:32:00,32.0,17.0,-100.00,NW,309,12.0,21.0,54,0.00,,,0.01,660.000000,,2013-03-03 20:32:00,
2013-03-03 15:43:00,32.0,17.0,-100.00,NW,309,12.0,21.0,54,0.00,,,0.01,660.000000,,2013-03-03 20:43:00,
2013-03-03 15:53:00,32.0,17.0,-100.00,NW,309,12.0,21.0,54,0.00,,,0.01,660.000000,,2013-03-03 20:53:00,
2013-03-03 16:02:00,32.0,17.0,-100.00,NW,309,12.0,21.0,54,0.00,,,0.01,660.000000,,2013-03-03 21:02:00,
2013-03-03 16:32:00,31.0,15.0,-100.00,North,358,9.0,19.0,51,0.00,,,0.01,446.000000,,2013-03-03 21:32:00,
2013-03-03 16:42:00,31.0,15.0,-100.00,North,358,9.0,19.0,51,0.00,,,0.01,446.000000,,2013-03-03 21:42:00,
2013-03-03 16:52:00,31.0,15.0,-100.00,North,358,9.0,19.0,51,0.00,,,0.01,446.000000,,2013-03-03 21:52:00,
2013-03-03 17:02:00,31.0,15.0,-100.00,North,358,9.0,19.0,51,0.00,,,0.01,446.000000,,2013-03-03 22:02:00,
2013-03-03 17:32:00,34.0,15.0,-100.00,NW,317,14.0,19.0,45,0.00,,,0.00,492.000000,,2013-03-03 22:32:00,
2013-03-03 17:42:00,34.0,15.0,-100.00,NW,317,14.0,19.0,45,0.00,,,0.00,492.000000,,2013-03-03 22:42:00,
2013-03-03 17:52:00,34.0,15.0,-100.00,NW,317,14.0,19.0,45,0.00,,,0.00,492.000000,,2013-03-03 22:52:00,
2013-03-03 18:02:00,34.0,15.0,-100.00,NW,317,14.0,19.0,45,0.00,,,0.00,492.000000,,2013-03-03 23:02:00,
2013-03-03 18:32:00,31.0,15.0,-100.00,NW,325,10.0,19.0,52,0.00,,,0.00,140.000000,,2013-03-03 23:32:00,
2013-03-03 18:42:00,31.0,15.0,-100.00,NW,325,10.0,19.0,52,0.00,,,0.00,140.000000,,2013-03-03 23:42:00,
2013-03-03 18:52:00,31.0,15.0,-100.00,NW,325,10.0,19.0,52,0.00,,,0.00,140.000000,,2013-03-03 23:52:00,
2013-03-03 19:02:00,31.0,15.0,-100.00,NW,325,10.0,19.0,52,0.00,,,0.00,140.000000,,2013-03-04 00:02:00,
2013-03-03 19:32:00,30.0,15.0,-100.00,NNW,340,8.0,18.0,53,0.00,,,0.00,16.000000,,2013-03-04 00:32:00,
2013-03-03 19:42:00,30.0,15.0,-100.00,NNW,340,8.0,18.0,53,0.00,,,0.00,16.000000,,2013-03-04 00:42:00,
2013-03-03 19:52:00,30.0,15.0,-100.00,NNW,340,8.0,18.0,53,0.00,,,0.00,16.000000,,2013-03-04 00:52:00,
2013-03-03 20:01:00,30.0,15.0,-100.00,NNW,340,8.0,18.0,53,0.00,,,0.00,16.000000,,2013-03-04 01:01:00,
2013-03-03 20:32:00,28.0,15.0,-100.00,NNE,12,2.0,11.0,57,0.00,,,0.00,0.000000,,2013-03-04 01:32:00,
2013-03-03 20:42:00,28.0,15.0,-100.00,NNE,12,2.0,11.0,57,0.00,,,0.00,0.000000,,2013-03-04 01:42:00,
2013-03-03 20:52:00,28.0,15.0,-100.00,NNE,12,2.0,11.0,57,0.00,,,0.00,0.000000,,2013-03-04 01:52:00,
2013-03-03 21:01:00,28.0,15.0,-100.00,NNE,12,2.0,11.0,57,0.00,,,0.00,0.000000,,2013-03-04 02:01:00,
2013-03-03 21:32:00,27.0,16.0,-100.00,East,79,2.0,4.0,62,0.00,,,0.00,0.000000,,2013-03-04 02:32:00,
2013-03-03 21:42:00,27.0,16.0,-100.00,East,79,2.0,4.0,62,0.00,,,0.00,0.000000,,2013-03-04 02:42:00,
2013-03-03 21:53:00,27.0,16.0,-100.00,East,79,2.0,4.0,62,0.00,,,0.00,0.000000,,2013-03-04 02:53:00,
2013-03-03 22:02:00,27.0,16.0,-100.00,East,79,2.0,4.0,62,0.00,,,0.00,0.000000,,2013-03-04 03:02:00,
2013-03-03 22:32:00,25.0,14.0,-100.00,North,356,2.0,5.0,62,0.00,,,0.00,0.000000,,2013-03-04 03:32:00,
2013-03-03 22:42:00,25.0,14.0,-100.00,North,356,2.0,5.0,62,0.00,,,0.00,0.000000,,2013-03-04 03:42:00,
2013-03-03 22:53:00,25.0,14.0,-100.00,North,356,2.0,5.0,62,0.00,,,0.00,0.000000,,2013-03-04 03:53:00,
2013-03-03 23:01:00,25.0,14.0,-100.00,North,356,2.0,5.0,62,0.00,,,0.00,0.000000,,2013-03-04 04:01:00,
2013-03-03 23:32:00,23.0,14.0,-100.00,NW,315,2.0,3.0,68,0.00,,,0.00,0.000000,,2013-03-04 04:32:00,
2013-03-03 23:42:00,23.0,14.0,-100.00,NW,315,2.0,3.0,68,0.00,,,0.00,0.000000,,2013-03-04 04:42:00,
2013-03-03 23:52:00,23.0,14.0,-100.00,NW,315,2.0,3.0,68,0.00,,,0.00,0.000000,,2013-03-04 04:52:00,